TimeAEST,TemperatureF,Dew PointF,Humidity,Sea Level PressureIn,VisibilityMPH,Wind Direction,Wind SpeedMPH,Gust SpeedMPH,PrecipitationIn,Events,Conditions,WindDirDegrees,DateUTC
12:00 AM,74,73,97,29.71,4,Calm,Calm,,,,Overcast,,2013-11-25 14:00:00
12:00 AM,75.2,73.4,94,29.71,4.3,Calm,Calm,-,N/A,Rain,Rain,0,2013-11-25 14:00:00
12:30 AM,75.2,73.4,94,29.68,4.3,Calm,Calm,-,N/A,Rain,Rain,0,2013-11-25 14:30:00
1:00 AM,74,74,98,29.68,,Calm,Calm,,,,,,2013-11-25 15:00:00
1:00 AM,75.2,73.4,94,29.68,6.2,Calm,Calm,-,N/A,,Mostly Cloudy,0,2013-11-25 15:00:00
1:30 AM,75.2,73.4,94,29.65,6.2,Calm,Calm,-,N/A,,Mostly Cloudy,0,2013-11-25 15:30:00
2:00 AM,75.2,73.4,94,29.65,6.2,South,4.6,-,N/A,,Mostly Cloudy,190,2013-11-25 16:00:00
2:30 AM,75.2,73.4,94,29.65,6.2,SSE,4.6,-,N/A,Rain,Light Rain Showers,150,2013-11-25 16:30:00
3:00 AM,74,74,98,29.66,,Calm,Calm,,,,,,2013-11-25 17:00:00
3:00 AM,75.2,73.4,94,29.65,6.2,Calm,Calm,-,N/A,Rain,Light Rain Showers,0,2013-11-25 17:00:00
3:30 AM,75.2,73.4,94,29.65,6.2,West,3.5,-,N/A,,Mostly Cloudy,270,2013-11-25 17:30:00
4:00 AM,74,73,97,29.68,,South,1.2,,,,,170,2013-11-25 18:00:00
4:00 AM,73.4,73.4,100,29.65,6.2,South,1.2,-,N/A,,Mostly Cloudy,170,2013-11-25 18:00:00
4:30 AM,75.2,73.4,94,29.65,6.2,Calm,Calm,-,N/A,,Mostly Cloudy,0,2013-11-25 18:30:00
5:00 AM,75.2,73.4,94,29.65,6.2,ESE,3.5,-,N/A,,Mostly Cloudy,110,2013-11-25 19:00:00
5:30 AM,75.2,73.4,94,29.68,6.2,West,4.6,-,N/A,,Mostly Cloudy,280,2013-11-25 19:30:00
6:00 AM,75,73,93,29.69,19,SSW,3.5,,,,Partly Cloudy,200,2013-11-25 20:00:00
6:00 AM,75.2,73.4,94,29.68,6.2,SSW,3.5,-,N/A,,Mostly Cloudy,200,2013-11-25 20:00:00
6:30 AM,77.0,73.4,89,29.71,6.2,South,2.3,-,N/A,,Mostly Cloudy,180,2013-11-25 20:30:00
7:00 AM,77,75,91,29.72,,South,5.8,,,,,170,2013-11-25 21:00:00
7:00 AM,77.0,75.2,94,29.71,6.2,South,5.8,-,N/A,,Mostly Cloudy,170,2013-11-25 21:00:00
7:30 AM,78.8,75.2,89,29.71,6.2,SE,4.6,-,N/A,,Mostly Cloudy,130,2013-11-25 21:30:00
8:00 AM,80.6,73.4,79,29.71,6.2,SSE,4.6,-,N/A,,Scattered Clouds,150,2013-11-25 22:00:00
8:30 AM,84.2,73.4,70,29.74,6.2,South,2.3,-,N/A,,Scattered Clouds,170,2013-11-25 22:30:00
9:00 AM,86,74,61,29.73,19,ENE,4.6,,,,Partly Cloudy,60,2013-11-25 23:00:00
9:00 AM,86.0,75.2,70,29.71,6.2,ENE,4.6,-,N/A,,Scattered Clouds,60,2013-11-25 23:00:00
9:30 AM,86.0,75.2,70,29.71,6.2,ENE,5.8,-,N/A,,Scattered Clouds,60,2013-11-25 23:30:00
10:00 AM,86,74,60,29.73,,NE,6.9,,,,,40,2013-11-26 00:00:00
10:00 AM,86.0,73.4,66,29.71,6.2,NE,6.9,-,N/A,,Scattered Clouds,40,2013-11-26 00:00:00
10:30 AM,87.8,73.4,62,29.71,6.2,ENE,9.2,-,N/A,,Scattered Clouds,70,2013-11-26 00:30:00
11:00 AM,86.0,77.0,74,29.71,6.2,NE,9.2,-,N/A,,Scattered Clouds,40,2013-11-26 01:00:00
11:30 AM,86.0,77.0,74,29.71,6.2,NNE,12.7,-,N/A,,Scattered Clouds,20,2013-11-26 01:30:00
12:00 PM,86,76,67,29.71,19,NNE,12.7,,,,Partly Cloudy,20,2013-11-26 02:00:00
12:00 PM,86.0,77.0,74,29.71,6.2,NNE,12.7,-,N/A,,Partly Cloudy,20,2013-11-26 02:00:00
12:30 PM,84.2,73.4,70,29.68,6.2,NNE,10.4,-,N/A,,Partly Cloudy,20,2013-11-26 02:30:00
1:00 PM,85,75,66,29.70,,North,9.2,,,,,10,2013-11-26 03:00:00
1:00 PM,86.0,75.2,70,29.68,6.2,North,9.2,-,N/A,,Partly Cloudy,10,2013-11-26 03:00:00
1:30 PM,86.0,75.2,70,29.68,6.2,North,9.2,-,N/A,,Partly Cloudy,10,2013-11-26 03:30:00
2:00 PM,86.0,73.4,66,29.65,6.2,NNE,9.2,-,N/A,,Partly Cloudy,20,2013-11-26 04:00:00
2:30 PM,86.0,75.2,70,29.65,6.2,NNE,8.1,-,N/A,,Partly Cloudy,20,2013-11-26 04:30:00
3:00 PM,85,74,63,29.65,19,NNE,9.2,,,,Partly Cloudy,30,2013-11-26 05:00:00
3:00 PM,86.0,75.2,70,29.65,6.2,NNE,9.2,-,N/A,,Partly Cloudy,30,2013-11-26 05:00:00
3:30 PM,86.0,75.2,70,29.62,6.2,NNE,8.1,-,N/A,,Partly Cloudy,30,2013-11-26 05:30:00
4:00 PM,85,76,67,29.65,,North,9.2,,,,,10,2013-11-26 06:00:00
4:00 PM,86.0,75.2,70,29.62,6.2,North,9.2,-,N/A,,Partly Cloudy,10,2013-11-26 06:00:00
4:30 PM,86.0,73.4,66,29.62,6.2,NNE,9.2,-,N/A,,Partly Cloudy,30,2013-11-26 06:30:00
5:00 PM,84.2,75.2,74,29.65,6.2,North,9.2,-,N/A,,Partly Cloudy,10,2013-11-26 07:00:00
5:30 PM,84.2,75.2,74,29.65,6.2,North,9.2,-,N/A,,Partly Cloudy,10,2013-11-26 07:30:00
6:00 PM,83,75,71,29.67,,North,8.1,,,,,0,2013-11-26 08:00:00
6:00 PM,84.2,75.2,74,29.65,6.2,North,8.1,-,N/A,,Scattered Clouds,360,2013-11-26 08:00:00
6:30 PM,82.4,75.2,79,29.68,6.2,NNW,6.9,-,N/A,,Scattered Clouds,330,2013-11-26 08:30:00
7:00 PM,81,76,82,29.71,,NW,4.6,,,,,320,2013-11-26 09:00:00
7:00 PM,80.6,77.0,89,29.68,6.2,NW,4.6,-,N/A,,Scattered Clouds,320,2013-11-26 09:00:00
7:30 PM,80.6,77.0,89,29.71,6.2,NW,5.8,-,N/A,,Scattered Clouds,310,2013-11-26 09:30:00
8:00 PM,80.6,77.0,89,29.71,6.2,NW,4.6,-,N/A,,Partly Cloudy,310,2013-11-26 10:00:00
8:30 PM,80.6,77.0,89,29.74,6.2,WNW,4.6,-,N/A,,Partly Cloudy,290,2013-11-26 10:30:00
9:00 PM,80,77,87,29.73,,WNW,3.5,,,,,290,2013-11-26 11:00:00
9:00 PM,80.6,77.0,89,29.71,6.2,WNW,3.5,-,N/A,,Scattered Clouds,290,2013-11-26 11:00:00
9:30 PM,80.6,77.0,89,29.71,6.2,West,4.6,-,N/A,,Partly Cloudy,280,2013-11-26 11:30:00
10:00 PM,79,76,89,29.75,,West,4.6,,,,,280,2013-11-26 12:00:00
10:00 PM,78.8,77.0,94,29.74,6.2,West,4.6,-,N/A,,Partly Cloudy,280,2013-11-26 12:00:00
10:30 PM,78.8,75.2,89,29.74,6.2,WNW,2.3,-,N/A,,Partly Cloudy,300,2013-11-26 12:30:00
11:00 PM,77.0,75.2,94,29.71,6.2,Calm,Calm,-,N/A,,Partly Cloudy,0,2013-11-26 13:00:00
11:30 PM,78.8,75.2,89,29.71,6.2,West,3.5,-,N/A,,Scattered Clouds,280,2013-11-26 13:30:00